メインページ
METAR-TAF:

METAR-TAF

空港 :

北京首都国際空港

北京, 中華人民共和国

緯度: 39-56N, 経度: 116-17E, 海抜: 55m

現時点の気象観測

当レポートは36分前の02:30(UTC)に作成
変向風 2kt
気温 -2°C
湿度 50%
気圧 1030 hPa
視程10km以上
1,500メートル以下は雲なし、積乱雲なし

METAR: ZBAA 150230Z VRB01MPS CAVOK M02/M11 Q1030 NOSIG

時間: 11:06 (03:06 UTC)

予報

当レポートは5時間36分前の21:30(UTC)に作成
予報は15日の 00時(UTC)から 15日の 24時(UTC)まで有効
西/北西の風 8kt
視程: 5000m

TAF: ZBAA 142130Z 1500/1524 30004MPS 5000 BR NSC TX02/1507Z TNM08/21Z

4,000以上の空港の気象観測と天気予報(METAR報とTAF報)

利用可能な観測所は地図上に黄色い丸と赤い丸で示す。

丸の上にカーソルを重ねると観測所名を参照できる。

次にクリックすると気象観測と天気予報を参照できる。

マップの切り替え:黒色「×」印の緑ボタンをクリックして拡大、「-」印の緑ボタンをクリックして縮小、緑色の三角印をクリックして隣りの地図に切り替え


METAR-TAF: